Etusivu
METAR-TAF:

METAR-TAF

Lentoasemat :

Tšita, Venäjä

Leveyspiiri: 52-05N, Pituuspiiri: 113-29E, korkeus merenpinnasta: 685 m

Tämänhetkinen sää

Tämä raportti tehtiin 44 minuuttia sitten, kello 22.30 UTC
Tuuli 6 kn lounaasta
Lämpötila 17°C
Kosteus 77%
Ilmanpaine 1008 hPa
Näkyvyys 10 km tai enemmän
Muutamia pilviä 5000 ft:n korkeudessa, Cumulonimbus.

METAR: UIAA 132230Z 22003MPS 9999 FEW050CB 17/13 Q1008 R29/70D NOSIG RMK QFE697/0930

Aika: 08:14 (23:14 UTC)

Sääennuste

Tämä raportti tehtiin 3 tuntia ja 14 minuuttia sitten, kello 20.00 UTC
Ennuste voimassa 13. päivästä klo 21 UTC - 14. päivään klo 21 UTC
Tuuli 6 kn lounaasta
Näkyvyys 10 km tai enemmän
Hajanaisia pilviä 3000 ft:n korkeudessa, Cumulonimbus.
Ajoittain
14. päivästä klo 00 UTC - 14. päivään klo 12 UTC
Tuuli 10 kn lännestä puuskistuen 19 kn:hen

TAF: UIAA 132000Z 1321/1421 22003MPS 9999 SCT030CB TEMPO 1400/1412 28005G10MPS

Säähavainnot ja -ennusteet yli 4000 lentoasemalta (METAR- ja TAF-raportit).

Käytössä olevat sääasemat on merkitty karttaan keltaisilla ja punaisilla pisteillä.

Aseta hiiri pisteen päälle nähdäksesi sääaseman nimen.

Klikkaa sitten nähdäksesi säähavainnot ja -ennusteet.

Kartan vaihtaminen: klikkaa mustalla rastilla varustettuja vihreitä pisteitä, niin voit zoomata sisään; viivalla varustettua vihreää pistettä, niin voit zoomata ulos tai vihreitä nuolia, niin pääset viereisille kartoille.


METAR-TAF: